createdAt,value
2019-04-11T00:01:51.598Z,98769.54
2019-04-11T00:04:18.790Z,98772.17
2019-04-11T00:06:47.883Z,98773.95
2019-04-11T00:09:17.254Z,98779.04
2019-04-11T00:11:46.209Z,98777.70
2019-04-11T00:14:15.831Z,98768.03
2019-04-11T00:16:45.422Z,98762.28
2019-04-11T00:19:14.110Z,98758.15
2019-04-11T00:21:42.606Z,98757.07
2019-04-11T00:24:11.013Z,98758.33
2019-04-11T00:26:40.308Z,98760.46
2019-04-11T00:29:10.058Z,98747.92
2019-04-11T00:31:39.134Z,98752.19
2019-04-11T00:34:08.814Z,98758.02
2019-04-11T00:36:38.708Z,98755.36
2019-04-11T00:39:09.221Z,98753.00
2019-04-11T00:41:37.927Z,98751.82
2019-04-11T00:44:06.484Z,98749.19
2019-04-11T00:46:36.175Z,98754.11
2019-04-11T00:49:04.779Z,98746.41
2019-04-11T00:51:34.075Z,98741.19
2019-04-11T00:54:02.769Z,98744.77
2019-04-11T00:56:32.473Z,98743.33
2019-04-11T00:59:02.376Z,98741.86
2019-04-11T01:01:31.629Z,98738.84
2019-04-11T01:04:01.256Z,98746.87
2019-04-11T01:06:30.100Z,98747.02
2019-04-11T01:08:59.915Z,98748.78
2019-04-11T01:11:28.535Z,98743.49
2019-04-11T01:13:57.409Z,98745.83
2019-04-11T01:16:45.530Z,98745.48
2019-04-11T01:19:14.327Z,98745.09
2019-04-11T01:21:43.079Z,98747.12
2019-04-11T01:24:11.572Z,98751.42
2019-04-11T01:26:41.256Z,98743.90
2019-04-11T01:29:11.230Z,98742.17
2019-04-11T01:31:40.631Z,98747.33
2019-04-11T01:34:08.996Z,98748.64
2019-04-11T01:36:37.516Z,98739.33
2019-04-11T01:39:21.645Z,98742.05
2019-04-11T01:41:50.924Z,98742.58
2019-04-11T01:44:20.548Z,98739.17
2019-04-11T01:46:49.397Z,98744.70
2019-04-11T01:49:19.908Z,98744.38
2019-04-11T01:51:49.724Z,98745.15
2019-04-11T01:54:19.370Z,98741.66
2019-04-11T01:56:48.040Z,98739.48
2019-04-11T01:59:17.436Z,98742.20
2019-04-11T02:01:56.941Z,98740.67
2019-04-11T02:04:38.661Z,98733.91
2019-04-11T02:07:07.329Z,98732.51
2019-04-11T02:09:35.937Z,98732.62
2019-04-11T02:12:05.805Z,98739.54
2019-04-11T02:14:35.423Z,98735.08
2019-04-11T02:17:04.329Z,98738.19
2019-04-11T02:19:32.915Z,98727.65
2019-04-11T02:22:16.259Z,98727.83
2019-04-11T02:24:52.255Z,98734.21
2019-04-11T02:27:24.791Z,98729.81
2019-04-11T02:29:55.102Z,98736.52
2019-04-11T02:32:25.507Z,98739.83
2019-04-11T02:34:58.854Z,98741.00
2019-04-11T02:37:26.273Z,98746.94
2019-04-11T02:39:55.998Z,98741.94
2019-04-11T02:42:27.505Z,98743.28
2019-04-11T02:45:13.804Z,98743.20
2019-04-11T02:47:31.213Z,98744.16
2019-04-11T02:49:57.370Z,98742.84
2019-04-11T02:52:28.241Z,98747.52
2019-04-11T02:54:57.460Z,98744.30
2019-04-11T02:57:26.518Z,98746.65
2019-04-11T02:59:56.073Z,98748.17
2019-04-11T03:02:26.603Z,98745.84
2019-04-11T03:04:56.158Z,98749.52
2019-04-11T03:07:25.255Z,98747.76
2019-04-11T03:09:55.982Z,98757.11
2019-04-11T03:12:24.287Z,98757.84
2019-04-11T03:15:09.255Z,98762.08
2019-04-11T03:17:30.633Z,98759.23
2019-04-11T03:20:09.476Z,98758.91
2019-04-11T03:22:26.973Z,98764.39
2019-04-11T03:24:58.313Z,98772.19
2019-04-11T03:27:28.688Z,98769.24
2019-04-11T03:29:58.065Z,98771.33
2019-04-11T03:35:51.726Z,98773.81
2019-04-11T03:37:56.620Z,98778.16
2019-04-11T03:40:21.045Z,98775.80
2019-04-11T03:42:43.349Z,98780.05
2019-04-11T03:45:23.685Z,98782.03
2019-04-11T03:47:40.892Z,98781.80
2019-04-11T03:50:08.349Z,98787.95
2019-04-11T03:52:32.779Z,98783.42
2019-04-11T03:55:05.828Z,98778.16
2019-04-11T03:57:34.282Z,98787.88
2019-04-11T04:00:06.069Z,98789.15
2019-04-11T04:02:34.893Z,98797.30
2019-04-11T04:05:06.053Z,98794.95
2019-04-11T04:07:35.939Z,98799.72
2019-04-11T04:10:09.221Z,98800.91
2019-04-11T04:12:37.800Z,98799.56
2019-04-11T04:15:42.418Z,98799.56
2019-04-11T04:18:23.875Z,98802.47
2019-04-11T04:21:09.184Z,98804.56
2019-04-11T04:23:41.221Z,98800.80
2019-04-11T04:26:12.227Z,98801.19
2019-04-11T04:28:41.052Z,98802.88
2019-04-11T04:31:11.548Z,98804.82
2019-04-11T04:33:40.395Z,98808.15
2019-04-11T04:36:10.979Z,98805.98
2019-04-11T04:38:41.497Z,98808.62
2019-04-11T04:41:22.309Z,98811.25
2019-04-11T04:43:44.374Z,98815.35
2019-04-11T04:46:29.780Z,98814.27
2019-04-11T04:48:44.903Z,98817.63
2019-04-11T04:51:16.165Z,98822.13
2019-04-11T04:53:45.186Z,98821.47
2019-04-11T04:56:16.631Z,98827.05
2019-04-11T04:58:44.552Z,98825.27
2019-04-11T05:01:15.598Z,98826.35
2019-04-11T05:03:46.608Z,98827.39
2019-04-11T05:06:16.349Z,98836.98
2019-04-11T05:08:45.294Z,98833.13
2019-04-11T05:11:14.055Z,98833.21
2019-04-11T05:13:45.304Z,98830.24
2019-04-11T05:16:17.506Z,98832.36
2019-04-11T05:18:43.993Z,98831.89
2019-04-11T05:21:12.841Z,98842.31
2019-04-11T05:23:41.784Z,98840.02
2019-04-11T05:26:10.932Z,98844.23
2019-04-11T05:28:39.690Z,98844.59
2019-04-11T05:31:08.215Z,98845.69
2019-04-11T05:33:37.038Z,98847.05
2019-04-11T05:36:06.032Z,98854.55
2019-04-11T05:38:35.876Z,98852.34
2019-04-11T05:41:09.691Z,98859.29
2019-04-11T05:43:37.245Z,98865.72
2019-04-11T05:46:22.899Z,98861.70
2019-04-11T05:49:00.682Z,98860.50
2019-04-11T05:51:37.839Z,98862.75
2019-04-11T05:54:05.937Z,98866.50
2019-04-11T05:56:31.872Z,98869.98
2019-04-11T05:59:27.151Z,98876.61
2019-04-11T06:02:07.677Z,98867.08
2019-04-11T06:04:42.722Z,98865.83
2019-04-11T06:07:34.906Z,98861.55
2019-04-11T06:10:10.764Z,98857.39
2019-04-11T06:12:59.019Z,98855.24
2019-04-11T06:15:31.804Z,98851.36
2019-04-11T06:18:02.810Z,98852.67
2019-04-11T06:20:43.704Z,98850.33
2019-04-11T06:23:40.678Z,98851.09
2019-04-11T06:26:47.122Z,98848.84
2019-04-11T06:29:24.829Z,98848.04
2019-04-11T06:32:13.845Z,98856.95
2019-04-11T06:34:49.224Z,98851.17
2019-04-11T06:37:40.129Z,98858.57
2019-04-11T06:40:15.980Z,98853.22
2019-04-11T06:42:51.742Z,98846.71
2019-04-11T06:45:38.207Z,98848.86
2019-04-11T06:48:15.820Z,98856.38
2019-04-11T06:50:49.389Z,98849.52
2019-04-11T06:53:40.384Z,98848.66
2019-04-11T06:56:27.283Z,98851.66
2019-04-11T06:59:02.433Z,98849.09
2019-04-11T07:01:31.375Z,98842.93
2019-04-11T07:04:35.702Z,98844.08
2019-04-11T07:07:06.854Z,98848.02
2019-04-11T07:10:04.059Z,98846.77
2019-04-11T07:12:45.591Z,98841.23
2019-04-11T07:15:23.133Z,98848.94
2019-04-11T07:18:09.910Z,98845.25
2019-04-11T07:20:56.696Z,98850.85
2019-04-11T07:23:44.665Z,98849.61
2019-04-11T07:26:21.414Z,98849.59
2019-04-11T07:29:09.690Z,98844.81
2019-04-11T07:32:04.730Z,98844.49
2019-04-11T07:34:54.368Z,98853.02
2019-04-11T07:37:36.773Z,98848.69
2019-04-11T07:40:29.238Z,98853.39
2019-04-11T07:43:24.739Z,98857.94
2019-04-11T07:46:26.878Z,98856.03
2019-04-11T07:48:59.423Z,98858.80
2019-04-11T07:51:29.783Z,98848.09
2019-04-11T07:54:03.082Z,98854.53
2019-04-11T07:56:53.558Z,98851.39
2019-04-11T07:59:40.529Z,98851.52
2019-04-11T08:02:47.725Z,98844.45
2019-04-11T08:05:39.016Z,98846.98
2019-04-11T08:08:30.272Z,98847.69
2019-04-11T08:11:33.882Z,98843.72
2019-04-11T08:14:20.376Z,98845.03
2019-04-11T08:17:07.634Z,98840.45
2019-04-11T08:19:55.345Z,98845.84
2019-04-11T08:22:35.045Z,98845.33
2019-04-11T08:25:20.927Z,98842.48
2019-04-11T08:28:00.282Z,98848.46
2019-04-11T08:30:48.937Z,98843.67
2019-04-11T08:33:18.385Z,98844.31
2019-04-11T08:36:07.322Z,98839.02
2019-04-11T08:38:36.420Z,98842.14
2019-04-11T08:41:36.395Z,98844.79
2019-04-11T08:44:18.164Z,98845.16
2019-04-11T08:46:51.127Z,98837.94
2019-04-11T08:49:39.735Z,98840.58
2019-04-11T08:52:17.826Z,98837.83
2019-04-11T08:54:59.264Z,98834.94
2019-04-11T08:57:33.987Z,98839.98
2019-04-11T09:00:31.303Z,98835.19
2019-04-11T09:03:37.791Z,98824.09
2019-04-11T09:06:12.652Z,98826.94
2019-04-11T09:08:51.093Z,98823.77
2019-04-11T09:11:28.803Z,98825.62
2019-04-11T09:14:11.593Z,98827.08
2019-04-11T09:16:52.153Z,98829.48
2019-04-11T09:19:37.507Z,98823.34
2019-04-11T09:22:25.742Z,98816.72
2019-04-11T09:25:30.118Z,98814.08
2019-04-11T09:28:27.580Z,98816.96
2019-04-11T09:31:21.212Z,98821.64
2019-04-11T09:34:15.486Z,98822.22
2019-04-11T09:37:03.597Z,98825.47
2019-04-11T09:39:53.172Z,98825.72
2019-04-11T09:42:38.684Z,98825.24
2019-04-11T09:45:27.709Z,98817.63
2019-04-11T09:48:19.865Z,98816.81
2019-04-11T09:51:15.640Z,98815.36
2019-04-11T09:53:47.262Z,98818.99
2019-04-11T09:56:36.184Z,98824.38
2019-04-11T09:59:09.451Z,98824.62
2019-04-11T10:01:58.225Z,98822.91
2019-04-11T10:04:27.993Z,98822.06
2019-04-11T10:07:28.386Z,98811.83
2019-04-11T10:10:35.328Z,98806.89
2019-04-11T10:13:22.166Z,98812.52
2019-04-11T10:16:15.962Z,98806.77
2019-04-11T10:19:05.375Z,98810.75
2019-04-11T10:21:34.679Z,98802.53
2019-04-11T10:24:22.420Z,98798.02
2019-04-11T10:27:04.602Z,98796.75
2019-04-11T10:29:52.510Z,98794.73
2019-04-11T10:32:23.932Z,98791.86
2019-04-11T10:35:20.100Z,98785.07
2019-04-11T10:37:49.806Z,98790.91
2019-04-11T10:40:50.362Z,98781.39
2019-04-11T10:43:20.303Z,98779.47
2019-04-11T10:46:17.523Z,98787.25
2019-04-11T10:48:52.838Z,98783.98
2019-04-11T10:51:36.181Z,98784.27
2019-04-11T10:54:06.936Z,98786.27
2019-04-11T10:56:51.574Z,98776.20
2019-04-11T10:59:25.071Z,98781.42
2019-04-11T11:02:09.006Z,98776.83
2019-04-11T11:04:41.085Z,98773.45
2019-04-11T11:07:13.089Z,98773.91
2019-04-11T11:10:00.814Z,98779.73
2019-04-11T11:12:47.750Z,98779.63
2019-04-11T11:15:23.298Z,98779.63
2019-04-11T11:18:48.058Z,98785.48
2019-04-11T11:21:09.822Z,98783.45
2019-04-11T11:23:57.078Z,98783.16
2019-04-11T11:26:29.323Z,98790.17
2019-04-11T11:29:37.460Z,98799.89
2019-04-11T11:32:13.387Z,98795.03
2019-04-11T11:34:53.464Z,98785.12
2019-04-11T11:37:41.626Z,98780.69
2019-04-11T11:40:30.064Z,98784.30
2019-04-11T11:43:19.694Z,98785.00
2019-04-11T11:46:12.092Z,98783.46
2019-04-11T11:48:46.287Z,98787.52
2019-04-11T11:51:33.349Z,98786.27
2019-04-11T11:54:20.083Z,98787.95
2019-04-11T11:56:49.055Z,98776.34
2019-04-11T11:59:38.547Z,98779.91
2019-04-11T12:02:15.796Z,98781.65
2019-04-11T12:05:15.831Z,98783.91
2019-04-11T12:08:10.826Z,98782.09
2019-04-11T12:10:46.219Z,98775.72
2019-04-11T12:13:26.520Z,98772.98
2019-04-11T12:16:16.070Z,98770.45
2019-04-11T12:19:02.530Z,98774.03
2019-04-11T12:21:33.066Z,98786.49
2019-04-11T12:24:27.914Z,98782.47
2019-04-11T12:27:31.121Z,98783.27
2019-04-11T12:30:33.842Z,98777.35
2019-04-11T12:33:25.697Z,98781.22
2019-04-11T12:35:59.160Z,98781.90
2019-04-11T12:38:47.283Z,98786.34
2019-04-11T12:41:41.117Z,98782.71
2019-04-11T12:44:30.397Z,98785.52
2019-04-11T12:47:17.523Z,98795.03
2019-04-11T12:50:14.795Z,98795.06
2019-04-11T12:52:57.209Z,98794.34
2019-04-11T12:55:30.924Z,98800.38
2019-04-11T12:58:17.590Z,98794.95
2019-04-11T13:01:04.648Z,98796.50
2019-04-11T13:04:10.889Z,98805.00
2019-04-11T13:21:14.388Z,98806.05
2019-04-11T13:24:11.395Z,98810.36
2019-04-11T13:26:58.060Z,98807.38
2019-04-11T13:29:48.767Z,98806.05
2019-04-11T13:32:29.590Z,98818.59
2019-04-11T13:35:02.990Z,98820.36
2019-04-11T13:37:49.482Z,98823.89
2019-04-11T13:40:47.563Z,98822.64
2019-04-11T13:43:30.679Z,98829.79
2019-04-11T13:46:17.357Z,98833.34
2019-04-11T13:49:00.219Z,98835.86
2019-04-11T13:51:48.362Z,98836.64
2019-04-11T13:54:40.276Z,98846.38
2019-04-11T13:57:37.709Z,98854.91
2019-04-11T14:00:25.317Z,98855.98
2019-04-11T14:03:08.487Z,98862.35
2019-04-11T14:05:38.959Z,98861.14
2019-04-11T14:08:07.900Z,98855.44
2019-04-11T14:10:36.465Z,98860.81
2019-04-11T14:13:06.915Z,98868.91
2019-04-11T14:15:36.607Z,98863.11
2019-04-11T14:18:25.022Z,98865.66
2019-04-11T14:21:01.016Z,98868.76
2019-04-11T14:23:38.274Z,98866.76
2019-04-11T14:26:35.512Z,98873.55
2019-04-11T14:29:36.042Z,98876.40
2019-04-11T14:32:25.880Z,98874.77
2019-04-11T14:35:22.768Z,98880.63
2019-04-11T14:38:11.218Z,98872.81
2019-04-11T14:41:05.555Z,98874.14
2019-04-11T14:43:36.909Z,98881.67
2019-04-11T14:46:25.148Z,98873.82
2019-04-11T14:48:55.995Z,98874.44
2019-04-11T14:51:46.272Z,98868.60
2019-04-11T14:54:18.392Z,98871.19
2019-04-11T14:56:52.399Z,98868.54
2019-04-11T14:59:53.808Z,98868.20
2019-04-11T15:02:40.999Z,98858.72
2019-04-11T15:05:35.395Z,98859.80
2019-04-11T15:08:04.995Z,98856.09
2019-04-11T15:10:56.271Z,98862.95
2019-04-11T15:13:28.462Z,98857.16
2019-04-11T15:16:15.389Z,98859.42
2019-04-11T15:18:50.245Z,98866.42
2019-04-11T15:21:37.241Z,98862.12
2019-04-11T15:24:07.558Z,98852.50
2019-04-11T15:27:01.744Z,98859.66
2019-04-11T15:29:32.593Z,98862.62
2019-04-11T15:32:18.810Z,98865.45
2019-04-11T15:34:53.267Z,98860.79
2019-04-11T15:37:47.493Z,98868.74
2019-04-11T15:40:19.708Z,98867.16
2019-04-11T15:43:13.224Z,98862.11
2019-04-11T15:45:51.859Z,98858.20
2019-04-11T15:48:45.797Z,98861.07
2019-04-11T15:51:52.092Z,98854.53
2019-04-11T15:54:43.285Z,98861.84
2019-04-11T15:57:23.613Z,98863.09
2019-04-11T16:00:30.216Z,98871.91
2019-04-11T16:03:04.370Z,98874.47
2019-04-11T16:05:46.233Z,98878.53
2019-04-11T16:08:33.052Z,98875.59
2019-04-11T16:11:29.866Z,98873.48
2019-04-11T16:14:21.697Z,98873.02
2019-04-11T16:17:15.689Z,98880.67
2019-04-11T16:19:48.980Z,98878.91
2019-04-11T16:22:36.160Z,98881.72
2019-04-11T16:25:08.638Z,98878.79
2019-04-11T16:28:06.864Z,98886.33
2019-04-11T16:30:33.701Z,98882.48
2019-04-11T16:33:27.968Z,98884.68
2019-04-11T16:36:00.239Z,98884.31
2019-04-11T16:38:31.020Z,98890.22
2019-04-11T16:41:34.463Z,98890.12
2019-04-11T16:44:05.728Z,98889.50
2019-04-11T16:46:54.874Z,98893.95
2019-04-11T16:49:23.687Z,98896.70
2019-04-11T16:51:53.511Z,98896.73
2019-04-11T16:54:21.924Z,98896.97
2019-04-11T16:56:50.713Z,98900.34
2019-04-11T16:59:20.068Z,98907.20
2019-04-11T17:01:53.358Z,98909.84
2019-04-11T17:04:19.776Z,98910.00
2019-04-11T17:07:06.444Z,98914.06
2019-04-11T17:09:39.358Z,98917.70
2019-04-11T17:12:07.981Z,98920.82
2019-04-11T17:14:36.693Z,98921.91
2019-04-11T17:17:14.549Z,98919.84
2019-04-11T17:19:36.753Z,98921.17
2019-04-11T17:22:05.485Z,98928.27
2019-04-11T17:24:34.097Z,98933.70
2019-04-11T17:27:02.687Z,98943.31
2019-04-11T17:29:31.380Z,98945.59
2019-04-11T17:31:59.975Z,98945.84
2019-04-11T17:34:32.131Z,98946.33
2019-04-11T17:37:02.569Z,98942.83
2019-04-11T17:39:29.581Z,98953.54
2019-04-11T17:41:58.367Z,98950.80
2019-04-11T17:44:26.959Z,98953.30
2019-04-11T17:46:56.834Z,98953.44
2019-04-11T17:49:26.057Z,98965.34
2019-04-11T17:51:56.088Z,98965.95
2019-04-11T17:54:25.577Z,98969.66
2019-04-11T17:56:54.921Z,98964.48
2019-04-11T17:59:28.076Z,98970.98
2019-04-11T18:01:55.315Z,98969.14
2019-04-11T18:04:23.807Z,98970.13
2019-04-11T18:06:52.533Z,98973.27
2019-04-11T18:09:25.563Z,98982.27
2019-04-11T18:11:55.849Z,98986.23
2019-04-11T18:14:22.136Z,98989.13
2019-04-11T18:16:50.732Z,98989.25
2019-04-11T18:19:19.703Z,98996.92
2019-04-11T18:21:48.092Z,99002.58
2019-04-11T18:24:19.730Z,99004.95
2019-04-11T18:26:47.228Z,99006.30
2019-04-11T18:29:15.925Z,99005.82
2019-04-11T18:31:44.556Z,99010.89
2019-04-11T18:34:13.410Z,99014.12
2019-04-11T18:36:41.953Z,99013.88
2019-04-11T18:39:10.760Z,99014.16
2019-04-11T18:41:40.062Z,99012.00
2019-04-11T18:44:08.674Z,99015.13
2019-04-11T18:46:37.473Z,99015.70
2019-04-11T18:49:06.220Z,99018.09
2019-04-11T18:51:34.723Z,99020.70
2019-04-11T18:54:03.752Z,99025.23
2019-04-11T18:56:32.375Z,99016.48
2019-04-11T18:59:03.549Z,99015.91
2019-04-11T19:01:31.587Z,99012.44
2019-04-11T19:04:01.209Z,99011.02
2019-04-11T19:06:32.343Z,99014.71
2019-04-11T19:09:01.597Z,99021.35
2019-04-11T19:11:30.196Z,99021.35
2019-04-11T19:13:59.198Z,99020.97
2019-04-11T19:16:28.723Z,99021.92
2019-04-11T19:18:57.895Z,99023.09
2019-04-11T19:21:26.621Z,99022.87
2019-04-11T19:23:58.098Z,99028.66
2019-04-11T19:26:26.713Z,99024.09
2019-04-11T19:28:55.768Z,99028.22
2019-04-11T19:31:27.456Z,99024.69
2019-04-11T19:33:55.504Z,99021.55
2019-04-11T19:36:24.460Z,99028.88
2019-04-11T19:38:52.872Z,99024.39
2019-04-11T19:41:21.803Z,99032.37
2019-04-11T19:43:50.353Z,99027.41
2019-04-11T19:46:20.434Z,99028.22
2019-04-11T19:48:49.689Z,99021.95
2019-04-11T19:51:18.384Z,99019.91
2019-04-11T19:53:47.304Z,99020.19
2019-04-11T19:56:27.625Z,99019.47
2019-04-11T19:58:56.243Z,99018.94
2019-04-11T20:01:25.095Z,99024.60
2019-04-11T20:03:54.588Z,99010.44
2019-04-11T20:06:23.252Z,99008.44
2019-04-11T20:08:51.793Z,99015.30
2019-04-11T20:11:20.427Z,99020.23
2019-04-11T20:13:49.232Z,99021.97
2019-04-11T20:16:17.823Z,99024.55
2019-04-11T20:18:51.396Z,99024.44
2019-04-11T20:21:17.175Z,99019.17
2019-04-11T20:23:45.743Z,99014.95
2019-04-11T20:26:14.315Z,99018.39
2019-04-11T20:28:42.788Z,99021.61
2019-04-11T20:31:11.374Z,99019.32
2019-04-11T20:33:39.976Z,99025.59
2019-04-11T20:36:15.431Z,99028.06
2019-04-11T20:38:45.412Z,99024.48
2019-04-11T20:41:14.059Z,99025.22
2019-04-11T20:43:43.244Z,99013.23
2019-04-11T20:46:12.116Z,99014.81
2019-04-11T20:48:40.801Z,99012.72
2019-04-11T20:51:09.298Z,99012.58
2019-04-11T20:53:37.908Z,99005.24
2019-04-11T20:56:09.579Z,99008.67
2019-04-11T20:58:39.553Z,99001.09
2019-04-11T21:01:07.599Z,99006.29
2019-04-11T21:03:36.211Z,99005.77
2019-04-11T21:06:04.692Z,99002.67
2019-04-11T21:08:34.495Z,99001.91
2019-04-11T21:11:04.495Z,99009.28
2019-04-11T21:13:38.057Z,99010.33
2019-04-11T21:16:04.715Z,99010.56
2019-04-11T21:18:33.260Z,99015.31
2019-04-11T21:21:01.859Z,99008.09
2019-04-11T21:23:30.650Z,99007.09
2019-04-11T21:25:59.685Z,99016.06
2019-04-11T21:28:30.361Z,99016.86
2019-04-11T21:31:00.087Z,99014.82
2019-04-11T21:33:29.260Z,99010.62
2019-04-11T21:35:57.857Z,99016.58
2019-04-11T21:38:28.148Z,99017.06
2019-04-11T21:40:56.999Z,99019.86
2019-04-11T21:43:25.511Z,99020.74
2019-04-11T21:45:54.007Z,99022.06
2019-04-11T21:48:23.056Z,99022.47
2019-04-11T21:50:51.545Z,99026.48
2019-04-11T21:53:20.049Z,99029.41
2019-04-11T21:55:48.653Z,99038.45
2019-04-11T21:58:20.102Z,99036.10
2019-04-11T22:00:54.395Z,99031.58
2019-04-11T22:03:24.241Z,99038.91
2019-04-11T22:05:53.510Z,99033.78
2019-04-11T22:08:22.098Z,99041.36
2019-04-11T22:10:50.722Z,99031.83
2019-04-11T22:13:19.225Z,99028.88
2019-04-11T22:15:47.707Z,99029.82
2019-04-11T22:18:17.038Z,99033.67
2019-04-11T22:20:45.915Z,99036.92
2019-04-11T22:23:14.621Z,99041.84
2019-04-11T22:25:43.273Z,99042.28
2019-04-11T22:28:11.797Z,99043.70
2019-04-11T22:30:40.393Z,99040.48
2019-04-11T22:33:31.442Z,99051.61
2019-04-11T22:36:00.060Z,99059.03
2019-04-11T22:38:30.786Z,99053.17
2019-04-11T22:41:01.560Z,99054.59
2019-04-11T22:43:29.384Z,99052.15
2019-04-11T22:45:57.997Z,99050.03
2019-04-11T22:48:26.721Z,99052.39
2019-04-11T22:50:55.228Z,99044.44
2019-04-11T22:53:23.834Z,99048.61
2019-04-11T22:55:52.447Z,99053.59
2019-04-11T22:58:20.945Z,99058.52
2019-04-11T23:00:51.623Z,99057.83
2019-04-11T23:03:28.829Z,99063.34
2019-04-11T23:05:57.489Z,99066.22
2019-04-11T23:08:25.989Z,99065.51
2019-04-11T23:10:54.777Z,99059.19
2019-04-11T23:13:23.467Z,99056.89
2019-04-11T23:15:51.969Z,99053.70
2019-04-11T23:18:20.595Z,99055.62
2019-04-11T23:20:49.281Z,99055.77
2019-04-11T23:23:17.878Z,99057.72
2019-04-11T23:25:46.376Z,99058.20
2019-04-11T23:28:16.386Z,99061.50
2019-04-11T23:30:49.384Z,99060.27
2019-04-11T23:33:16.030Z,99049.72
2019-04-11T23:35:44.418Z,99054.76
2019-04-11T23:38:12.951Z,99044.40
2019-04-11T23:40:41.555Z,99043.09
2019-04-11T23:43:10.176Z,99043.48
2019-04-11T23:45:38.685Z,99047.06
2019-04-11T23:48:07.400Z,99054.75
2019-04-11T23:50:35.910Z,99050.77
2019-04-11T23:53:04.425Z,99045.69
2019-04-11T23:55:33.200Z,99046.97
2019-04-11T23:58:02.337Z,99047.61
